INDIA METEOROLOGICAL DEPARTMENT, R.M.C. NEW DELHI
Dated:24 - 1 - 2017
METARS


Ahmedabad  
VAAH 241700Z 00000KT 4000 FU NSC 23/14 Q1015 NOSIG=
Bangalore  
VOBL 241700Z 09006KT 8000 NSC 19/15 Q1020 NOSIG=
Bhopal     
VABP 241600Z 16003KT 5000 HZ NSC 21/13 Q1020 NOSIG=
Bhubaneswar
VEBS 241700Z 00000KT 3000 HZ NSC 20/15 Q1018 NOSIG =
Chennai    
VOMM 241730Z 05005KT 6000 FEW020 SCT025 26/20 Q1014 NOSIG=
Coimbatore 
VOCB 241700Z 09006KT 6000 FEW015 26/12 Q1017 NOSIG=
Colombo    
VCBI 241710Z 03009KT 9000 SCT018 OVC090 24/22 Q1013 NOSIG=
Delhi      
VIDP 241700Z 00000KT 0800 R28/P2000 R29/P2000 MIFG FEW100 17/13 Q1019 BECMG 0600 MIFG=
Gauhati    
VEGT 241700Z NIL=
Gaya       
VEGY 241700Z NIL=
Goa        
VOGO 241600Z VRB03KT 6000 FEW220 27/20 Q1013 NOSIG=
Hyderabad  
VOHS 241730Z 06003KT 6000 NSC 22/11 Q1020 NOSIG=
Jaipur     
VIJP 241700Z 08007KT 2500 HZ SCT100 21/14 Q1019 NOSIG=
Kochi      
VOCI 241700Z 00000KT 4000 HZ NSC 26/20 Q1013 NOSIG=
Kolkata    
VECC 241730Z 00000KT 1800 BR NSC 18/15 Q1018 NOSIG=
Kozhikode  
VOCL 241730Z 00000KT 6000 NSC 27/21 Q1013 NOSIG=
Lucknow    
VILK 241630Z VRB02KT 1500 R27/2000 BR NSC 15/13 Q1018=
Madurai    
VOMD 241700Z 07007KT 5000 HZ FEW020 SCT100 26/19 Q1016 NOSIG=
Mumbai     
VABB 241700Z 06003KT 2200 FU NSC 28/14 Q1015 NOSIG=
Nagpur     
VANP 241630Z 00000KT 3000 HZ NSC 19/12 Q1019 NOSIG=
Patna      
VEPT 241700Z NIL=
Trichy     
VOTR 241700Z 06010KT 5000 HZ FEW018 24/19 Q1015 BECMG 4000 HZ=
Trivandrum 
VOTV 241700Z 24003KT 4000 HZ SCT015 SCT020 29/23 Q1012 NOSIG=
Udaipur    
VAUD 241530Z 36002KT 4000 HZ NSC 20/13 Q1018 NOSIG=
Varanasi   
VEBN 241630Z 00000KT 2000 BR NSC 18/14 Q1019=
Vizag      
VOVZ 241700Z 01006KT 4000 BR NSC 22/18 Q1017 NOSIG =
Male       
VRMM 241700Z 06017KT 9999 FEW020 28/24 Q1013 NOSIG=
Gan        
VRMG 241700Z VRB02KT 9999 FEW018 SCT270 28/24 Q1014=
Kathmandu  
VNKT 241720Z 00000KT 5000 BR FEW020 10/07 Q1025 NOSIG=
Dhaka      
VGHS 241700Z 00000KT 3500 HZ NSC 21/15 Q1017 NOSIG=
Colombo    
VCBI 241710Z 03009KT 9000 SCT018 OVC090 24/22 Q1013 NOSIG=
Karachi    
OPKC 241725Z 35005KT 6000 BKN100 20/04 Q1019 NOSIG=
Lahore     
OPLA 241725Z 3300KT 3000 BR SCT040 OVC100 13/10 Q1010 A3012=
Pune       
VAPO 241630Z VRB01KT 6000 NSC 23/09 Q1020 NOSIG=